sensor_id;sensor_type;location;lat;lon;timestamp;pressure;altitude;pressure_sealevel;temperature;humidity
54920;BME280;63804;53.120;8.764;2024-03-25T00:00:12;100354.88;;;6.90;79.78
54920;BME280;63804;53.120;8.764;2024-03-25T00:02:39;100357.97;;;6.96;79.89
54920;BME280;63804;53.120;8.764;2024-03-25T00:05:06;100360.22;;;7.02;79.88
54920;BME280;63804;53.120;8.764;2024-03-25T00:07:38;100369.16;;;7.00;79.95
54920;BME280;63804;53.120;8.764;2024-03-25T00:10:05;100369.25;;;6.98;79.89
54920;BME280;63804;53.120;8.764;2024-03-25T00:12:35;100372.72;;;6.99;79.82
54920;BME280;63804;53.120;8.764;2024-03-25T00:15:01;100378.00;;;6.99;80.17
54920;BME280;63804;53.120;8.764;2024-03-25T00:17:27;100374.59;;;6.97;80.20
54920;BME280;63804;53.120;8.764;2024-03-25T00:19:53;100374.81;;;6.94;79.92
54920;BME280;63804;53.120;8.764;2024-03-25T00:22:20;100389.66;;;6.95;80.27
54920;BME280;63804;53.120;8.764;2024-03-25T00:24:47;100383.53;;;6.94;80.10
54920;BME280;63804;53.120;8.764;2024-03-25T00:27:14;100389.88;;;6.92;79.81
54920;BME280;63804;53.120;8.764;2024-03-25T00:29:40;100395.66;;;6.97;79.66
54920;BME280;63804;53.120;8.764;2024-03-25T00:32:06;100403.19;;;7.03;79.59
54920;BME280;63804;53.120;8.764;2024-03-25T00:34:32;100398.22;;;6.98;79.68
54920;BME280;63804;53.120;8.764;2024-03-25T00:36:59;100403.56;;;6.97;79.57
54920;BME280;63804;53.120;8.764;2024-03-25T00:39:25;100402.91;;;6.93;79.66
54920;BME280;63804;53.120;8.764;2024-03-25T00:41:52;100412.59;;;6.93;79.65
54920;BME280;63804;53.120;8.764;2024-03-25T00:44:18;100412.41;;;6.96;79.67
54920;BME280;63804;53.120;8.764;2024-03-25T00:46:45;100411.75;;;6.92;79.87
54920;BME280;63804;53.120;8.764;2024-03-25T00:49:11;100411.94;;;6.89;80.12
54920;BME280;63804;53.120;8.764;2024-03-25T00:51:37;100415.34;;;6.91;80.03
54920;BME280;63804;53.120;8.764;2024-03-25T00:54:03;100420.19;;;6.97;79.74
54920;BME280;63804;53.120;8.764;2024-03-25T00:56:30;100420.00;;;7.00;79.51
54920;BME280;63804;53.120;8.764;2024-03-25T00:58:56;100415.78;;;6.98;79.09
54920;BME280;63804;53.120;8.764;2024-03-25T01:01:24;100416.25;;;6.90;79.68
54920;BME280;63804;53.120;8.764;2024-03-25T01:03:50;100420.69;;;6.90;79.70
54920;BME280;63804;53.120;8.764;2024-03-25T01:06:16;100425.22;;;6.88;79.73
54920;BME280;63804;53.120;8.764;2024-03-25T01:08:42;100424.72;;;6.95;78.99
54920;BME280;63804;53.120;8.764;2024-03-25T01:11:08;100427.44;;;6.94;79.21
54920;BME280;63804;53.120;8.764;2024-03-25T01:13:34;100421.63;;;6.89;79.25
54920;BME280;63804;53.120;8.764;2024-03-25T01:16:00;100422.47;;;6.89;79.29
54920;BME280;63804;53.120;8.764;2024-03-25T01:18:26;100425.03;;;6.91;79.08
54920;BME280;63804;53.120;8.764;2024-03-25T01:20:52;100425.03;;;6.91;79.34
54920;BME280;63804;53.120;8.764;2024-03-25T01:23:18;100425.94;;;6.90;78.96
54920;BME280;63804;53.120;8.764;2024-03-25T01:25:44;100413.63;;;6.90;79.25
54920;BME280;63804;53.120;8.764;2024-03-25T01:28:10;100424.38;;;6.87;79.38
54920;BME280;63804;53.120;8.764;2024-03-25T01:30:36;100420.81;;;6.88;79.15
54920;BME280;63804;53.120;8.764;2024-03-25T01:33:05;100421.09;;;6.83;79.20
54920;BME280;63804;53.120;8.764;2024-03-25T01:35:31;100421.94;;;6.84;79.52
54920;BME280;63804;53.120;8.764;2024-03-25T01:37:57;100424.75;;;6.81;79.50
54920;BME280;63804;53.120;8.764;2024-03-25T01:40:23;100438.09;;;6.78;79.72
54920;BME280;63804;53.120;8.764;2024-03-25T01:43:00;100436.31;;;6.78;80.09
54920;BME280;63804;53.120;8.764;2024-03-25T01:45:31;100435.59;;;6.76;80.14
54920;BME280;63804;53.120;8.764;2024-03-25T01:47:59;100433.03;;;6.75;80.09
54920;BME280;63804;53.120;8.764;2024-03-25T01:50:27;100435.66;;;6.75;80.16
54920;BME280;63804;53.120;8.764;2024-03-25T01:52:54;100439.91;;;6.77;80.26
54920;BME280;63804;53.120;8.764;2024-03-25T01:55:21;100449.88;;;6.72;80.23
54920;BME280;63804;53.120;8.764;2024-03-25T01:57:52;100446.78;;;6.66;80.60
54920;BME280;63804;53.120;8.764;2024-03-25T02:00:18;100454.84;;;6.63;80.75
54920;BME280;63804;53.120;8.764;2024-03-25T02:02:44;100446.22;;;6.61;81.02
54920;BME280;63804;53.120;8.764;2024-03-25T02:05:11;100455.69;;;6.63;81.23
54920;BME280;63804;53.120;8.764;2024-03-25T02:07:37;100448.47;;;6.67;81.00
54920;BME280;63804;53.120;8.764;2024-03-25T02:10:05;100455.41;;;6.68;80.77
54920;BME280;63804;53.120;8.764;2024-03-25T02:12:32;100458.69;;;6.71;80.73
54920;BME280;63804;53.120;8.764;2024-03-25T02:14:59;100457.59;;;6.75;80.42
54920;BME280;63804;53.120;8.764;2024-03-25T02:17:25;100462.84;;;6.75;80.77
54920;BME280;63804;53.120;8.764;2024-03-25T02:19:51;100472.03;;;6.82;80.45
54920;BME280;63804;53.120;8.764;2024-03-25T02:22:18;100460.34;;;6.87;80.26
54920;BME280;63804;53.120;8.764;2024-03-25T02:24:45;100465.34;;;6.91;80.11
54920;BME280;63804;53.120;8.764;2024-03-25T02:27:12;100465.91;;;6.96;79.79
54920;BME280;63804;53.120;8.764;2024-03-25T02:29:41;100466.28;;;6.90;80.02
54920;BME280;63804;53.120;8.764;2024-03-25T02:32:08;100464.50;;;6.91;79.81
54920;BME280;63804;53.120;8.764;2024-03-25T02:34:37;100464.22;;;6.95;79.70
54920;BME280;63804;53.120;8.764;2024-03-25T02:37:04;100471.81;;;7.00;79.77
54920;BME280;63804;53.120;8.764;2024-03-25T02:39:31;100478.03;;;6.99;79.71
54920;BME280;63804;53.120;8.764;2024-03-25T02:41:58;100477.09;;;7.00;79.78
54920;BME280;63804;53.120;8.764;2024-03-25T02:44:24;100484.13;;;6.99;79.63
54920;BME280;63804;53.120;8.764;2024-03-25T02:46:50;100470.97;;;6.99;79.69
54920;BME280;63804;53.120;8.764;2024-03-25T02:49:18;100476.44;;;6.96;79.55
54920;BME280;63804;53.120;8.764;2024-03-25T02:51:44;100482.66;;;6.95;80.07
54920;BME280;63804;53.120;8.764;2024-03-25T02:54:10;100491.56;;;6.93;79.80
54920;BME280;63804;53.120;8.764;2024-03-25T02:56:36;100490.91;;;6.89;79.99
54920;BME280;63804;53.120;8.764;2024-03-25T02:59:02;100503.34;;;6.87;79.88
54920;BME280;63804;53.120;8.764;2024-03-25T03:01:28;100498.81;;;6.89;79.69
54920;BME280;63804;53.120;8.764;2024-03-25T03:03:54;100499.56;;;6.91;79.21
54920;BME280;63804;53.120;8.764;2024-03-25T03:06:20;100502.38;;;6.88;79.37
54920;BME280;63804;53.120;8.764;2024-03-25T03:08:48;100501.56;;;6.88;79.18
54920;BME280;63804;53.120;8.764;2024-03-25T03:11:14;100505.88;;;6.89;78.52
54920;BME280;63804;53.120;8.764;2024-03-25T03:13:40;100493.25;;;6.94;78.30
54920;BME280;63804;53.120;8.764;2024-03-25T03:16:06;100504.72;;;6.93;78.56
54920;BME280;63804;53.120;8.764;2024-03-25T03:18:32;100507.38;;;6.93;78.95
54920;BME280;63804;53.120;8.764;2024-03-25T03:20:58;100513.28;;;6.96;79.08
54920;BME280;63804;53.120;8.764;2024-03-25T03:23:24;100509.69;;;6.97;79.15
54920;BME280;63804;53.120;8.764;2024-03-25T03:25:50;100515.56;;;6.88;79.56
54920;BME280;63804;53.120;8.764;2024-03-25T03:28:17;100516.09;;;6.93;79.76
54920;BME280;63804;53.120;8.764;2024-03-25T03:30:43;100515.16;;;6.94;79.72
54920;BME280;63804;53.120;8.764;2024-03-25T03:33:09;100514.41;;;6.92;79.59
54920;BME280;63804;53.120;8.764;2024-03-25T03:35:35;100521.53;;;6.90;79.70
54920;BME280;63804;53.120;8.764;2024-03-25T03:38:02;100523.16;;;6.93;79.89
54920;BME280;63804;53.120;8.764;2024-03-25T03:40:29;100523.91;;;6.95;79.93
54920;BME280;63804;53.120;8.764;2024-03-25T03:42:55;100528.13;;;6.97;79.79
54920;BME280;63804;53.120;8.764;2024-03-25T03:45:24;100521.94;;;6.98;80.15
54920;BME280;63804;53.120;8.764;2024-03-25T03:47:50;100518.72;;;6.93;80.31
54920;BME280;63804;53.120;8.764;2024-03-25T03:50:16;100520.03;;;6.86;80.69
54920;BME280;63804;53.120;8.764;2024-03-25T03:52:42;100522.22;;;6.94;80.47
54920;BME280;63804;53.120;8.764;2024-03-25T03:55:08;100523.91;;;6.95;80.79
54920;BME280;63804;53.120;8.764;2024-03-25T03:57:34;100513.28;;;6.96;81.02
54920;BME280;63804;53.120;8.764;2024-03-25T04:00:01;100532.00;;;6.92;80.97
54920;BME280;63804;53.120;8.764;2024-03-25T04:02:27;100525.13;;;6.89;81.51
54920;BME280;63804;53.120;8.764;2024-03-25T04:04:54;100527.88;;;6.88;81.47
54920;BME280;63804;53.120;8.764;2024-03-25T04:07:20;100525.97;;;6.90;81.37
54920;BME280;63804;53.120;8.764;2024-03-25T04:09:55;100539.13;;;6.90;81.46
54920;BME280;63804;53.120;8.764;2024-03-25T04:12:23;100540.84;;;6.91;81.58
54920;BME280;63804;53.120;8.764;2024-03-25T04:14:49;100538.22;;;6.91;81.16
54920;BME280;63804;53.120;8.764;2024-03-25T04:17:21;100542.78;;;7.01;80.85
54920;BME280;63804;53.120;8.764;2024-03-25T04:19:51;100542.25;;;6.96;80.65
54920;BME280;63804;53.120;8.764;2024-03-25T04:22:17;100541.22;;;6.99;80.93
54920;BME280;63804;53.120;8.764;2024-03-25T04:24:43;100539.41;;;6.99;80.96
54920;BME280;63804;53.120;8.764;2024-03-25T04:27:09;100542.06;;;6.99;80.69
54920;BME280;63804;53.120;8.764;2024-03-25T04:29:35;100539.97;;;7.04;80.52
54920;BME280;63804;53.120;8.764;2024-03-25T04:32:01;100544.69;;;6.99;80.68
54920;BME280;63804;53.120;8.764;2024-03-25T04:34:29;100553.59;;;6.97;81.06
54920;BME280;63804;53.120;8.764;2024-03-25T04:36:58;100546.66;;;6.96;80.79
54920;BME280;63804;53.120;8.764;2024-03-25T04:39:24;100548.75;;;6.91;81.13
54920;BME280;63804;53.120;8.764;2024-03-25T04:41:50;100557.28;;;6.80;81.17
54920;BME280;63804;53.120;8.764;2024-03-25T04:44:16;100554.06;;;6.75;80.96
54920;BME280;63804;53.120;8.764;2024-03-25T04:46:44;100552.94;;;6.79;80.44
54920;BME280;63804;53.120;8.764;2024-03-25T04:49:10;100554.47;;;6.83;79.92
54920;BME280;63804;53.120;8.764;2024-03-25T04:51:36;100561.25;;;6.87;79.75
54920;BME280;63804;53.120;8.764;2024-03-25T04:54:03;100567.16;;;6.91;79.10
54920;BME280;63804;53.120;8.764;2024-03-25T04:56:29;100569.03;;;6.89;78.84
54920;BME280;63804;53.120;8.764;2024-03-25T04:58:57;100571.38;;;6.93;78.90
54920;BME280;63804;53.120;8.764;2024-03-25T05:01:28;100573.81;;;6.96;78.99
54920;BME280;63804;53.120;8.764;2024-03-25T05:03:54;100581.16;;;6.91;79.36
54920;BME280;63804;53.120;8.764;2024-03-25T05:06:20;100582.75;;;6.94;79.21
54920;BME280;63804;53.120;8.764;2024-03-25T05:08:46;100568.38;;;6.99;79.49
54920;BME280;63804;53.120;8.764;2024-03-25T05:11:12;100573.00;;;6.96;79.12
54920;BME280;63804;53.120;8.764;2024-03-25T05:13:38;100578.44;;;6.93;79.60
54920;BME280;63804;53.120;8.764;2024-03-25T05:16:04;100567.63;;;6.97;79.50
54920;BME280;63804;53.120;8.764;2024-03-25T05:18:31;100583.41;;;6.97;79.09
54920;BME280;63804;53.120;8.764;2024-03-25T05:20:57;100591.69;;;6.91;79.48
54920;BME280;63804;53.120;8.764;2024-03-25T05:23:23;100590.56;;;6.95;78.85
54920;BME280;63804;53.120;8.764;2024-03-25T05:25:49;100593.75;;;7.00;78.66
54920;BME280;63804;53.120;8.764;2024-03-25T05:28:15;100611.16;;;7.03;78.86
54920;BME280;63804;53.120;8.764;2024-03-25T05:30:41;100605.91;;;7.03;78.58
54920;BME280;63804;53.120;8.764;2024-03-25T05:33:07;100607.94;;;6.98;78.87
54920;BME280;63804;53.120;8.764;2024-03-25T05:35:33;100617.16;;;7.05;79.22
54920;BME280;63804;53.120;8.764;2024-03-25T05:38:02;100615.38;;;7.05;79.08
54920;BME280;63804;53.120;8.764;2024-03-25T05:40:31;100611.44;;;6.98;79.37
54920;BME280;63804;53.120;8.764;2024-03-25T05:42:57;100615.47;;;7.04;79.43
54920;BME280;63804;53.120;8.764;2024-03-25T05:45:23;100611.06;;;7.04;79.24
54920;BME280;63804;53.120;8.764;2024-03-25T05:47:50;100610.31;;;7.02;79.45
54920;BME280;63804;53.120;8.764;2024-03-25T05:50:16;100610.88;;;7.07;79.42
54920;BME280;63804;53.120;8.764;2024-03-25T05:52:42;100610.50;;;6.99;79.62
54920;BME280;63804;53.120;8.764;2024-03-25T05:55:09;100611.16;;;7.03;79.72
54920;BME280;63804;53.120;8.764;2024-03-25T05:57:36;100602.13;;;7.07;79.67
54920;BME280;63804;53.120;8.764;2024-03-25T06:00:03;100607.00;;;7.13;79.75
54920;BME280;63804;53.120;8.764;2024-03-25T06:02:29;100612.94;;;7.17;79.74
54920;BME280;63804;53.120;8.764;2024-03-25T06:04:56;100615.47;;;7.18;79.19
54920;BME280;63804;53.120;8.764;2024-03-25T06:07:22;100623.19;;;7.21;79.32
54920;BME280;63804;53.120;8.764;2024-03-25T06:09:48;100625.53;;;7.26;78.93
54920;BME280;63804;53.120;8.764;2024-03-25T06:12:14;100626.38;;;7.26;78.83
54920;BME280;63804;53.120;8.764;2024-03-25T06:14:40;100628.34;;;7.23;78.65
54920;BME280;63804;53.120;8.764;2024-03-25T06:17:06;100630.88;;;7.24;78.60
54920;BME280;63804;53.120;8.764;2024-03-25T06:19:32;100629.75;;;7.28;78.47
54920;BME280;63804;53.120;8.764;2024-03-25T06:21:58;100629.88;;;7.27;78.34
54920;BME280;63804;53.120;8.764;2024-03-25T06:24:24;100639.38;;;7.29;78.31
54920;BME280;63804;53.120;8.764;2024-03-25T06:26:50;100639.25;;;7.31;78.08
54920;BME280;63804;53.120;8.764;2024-03-25T06:29:16;100641.72;;;7.34;77.87
54920;BME280;63804;53.120;8.764;2024-03-25T06:31:42;100639.34;;;7.44;77.26
54920;BME280;63804;53.120;8.764;2024-03-25T06:34:27;100645.47;;;7.44;77.30
54920;BME280;63804;53.120;8.764;2024-03-25T06:36:53;100649.03;;;7.43;76.99
54920;BME280;63804;53.120;8.764;2024-03-25T06:39:19;100657.13;;;7.40;76.78
54920;BME280;63804;53.120;8.764;2024-03-25T06:41:45;100655.34;;;7.41;76.99
54920;BME280;63804;53.120;8.764;2024-03-25T06:44:11;100658.34;;;7.49;76.56
54920;BME280;63804;53.120;8.764;2024-03-25T06:46:37;100664.38;;;7.51;76.56
54920;BME280;63804;53.120;8.764;2024-03-25T06:49:03;100658.84;;;7.55;76.36
54920;BME280;63804;53.120;8.764;2024-03-25T06:51:29;100658.06;;;7.53;76.01
54920;BME280;63804;53.120;8.764;2024-03-25T06:53:55;100661.47;;;7.55;76.39
54920;BME280;63804;53.120;8.764;2024-03-25T06:56:21;100667.34;;;7.59;76.16
54920;BME280;63804;53.120;8.764;2024-03-25T06:58:47;100666.53;;;7.58;76.30
54920;BME280;63804;53.120;8.764;2024-03-25T07:01:13;100663.31;;;7.68;76.37
54920;BME280;63804;53.120;8.764;2024-03-25T07:03:42;100667.81;;;7.66;76.05
54920;BME280;63804;53.120;8.764;2024-03-25T07:06:13;100664.91;;;7.70;76.16
54920;BME280;63804;53.120;8.764;2024-03-25T07:08:39;100667.44;;;7.72;76.17
54920;BME280;63804;53.120;8.764;2024-03-25T07:11:05;100668.47;;;7.84;75.56
54920;BME280;63804;53.120;8.764;2024-03-25T07:13:31;100665.53;;;7.88;75.66
54920;BME280;63804;53.120;8.764;2024-03-25T07:15:57;100672.47;;;7.89;75.08
54920;BME280;63804;53.120;8.764;2024-03-25T07:18:23;100669.13;;;7.87;75.42
54920;BME280;63804;53.120;8.764;2024-03-25T07:20:50;100680.13;;;7.94;75.00
54920;BME280;63804;53.120;8.764;2024-03-25T07:23:16;100678.69;;;8.02;74.63
54920;BME280;63804;53.120;8.764;2024-03-25T07:25:42;100677.00;;;8.01;74.79
54920;BME280;63804;53.120;8.764;2024-03-25T07:28:08;100677.72;;;8.03;74.29
54920;BME280;63804;53.120;8.764;2024-03-25T07:30:34;100685.91;;;8.13;73.62
54920;BME280;63804;53.120;8.764;2024-03-25T07:33:00;100681.28;;;8.17;73.43
54920;BME280;63804;53.120;8.764;2024-03-25T07:35:26;100690.56;;;8.22;73.48
54920;BME280;63804;53.120;8.764;2024-03-25T07:37:52;100691.09;;;8.27;72.82
54920;BME280;63804;53.120;8.764;2024-03-25T07:40:19;100685.34;;;8.35;72.38
54920;BME280;63804;53.120;8.764;2024-03-25T07:42:45;100698.28;;;8.40;71.63
54920;BME280;63804;53.120;8.764;2024-03-25T07:45:11;100698.84;;;8.30;71.48
54920;BME280;63804;53.120;8.764;2024-03-25T07:47:37;100707.31;;;8.36;71.31
54920;BME280;63804;53.120;8.764;2024-03-25T07:50:04;100699.97;;;8.41;70.93
54920;BME280;63804;53.120;8.764;2024-03-25T07:52:31;100701.25;;;8.48;70.89
54920;BME280;63804;53.120;8.764;2024-03-25T07:54:57;100703.97;;;8.46;70.33
54920;BME280;63804;53.120;8.764;2024-03-25T07:57:23;100705.28;;;8.53;70.20
54920;BME280;63804;53.120;8.764;2024-03-25T07:59:49;100709.19;;;8.48;69.97
54920;BME280;63804;53.120;8.764;2024-03-25T08:02:16;100706.19;;;8.40;69.17
54920;BME280;63804;53.120;8.764;2024-03-25T08:04:42;100711.91;;;8.46;69.16
54920;BME280;63804;53.120;8.764;2024-03-25T08:07:07;100716.44;;;8.44;68.88
54920;BME280;63804;53.120;8.764;2024-03-25T08:09:33;100715.31;;;8.34;68.88
54920;BME280;63804;53.120;8.764;2024-03-25T08:11:59;100718.13;;;8.31;68.79
54920;BME280;63804;53.120;8.764;2024-03-25T08:14:25;100722.28;;;8.35;68.39
54920;BME280;63804;53.120;8.764;2024-03-25T08:16:52;100724.66;;;8.40;69.17
54920;BME280;63804;53.120;8.764;2024-03-25T08:20:10;100725.09;;;8.46;68.60
54920;BME280;63804;53.120;8.764;2024-03-25T08:22:36;100717.22;;;8.59;68.20
54920;BME280;63804;53.120;8.764;2024-03-25T08:25:20;100722.19;;;8.64;67.73
54920;BME280;63804;53.120;8.764;2024-03-25T08:29:12;100728.81;;;8.57;68.28
54920;BME280;63804;53.120;8.764;2024-03-25T08:31:38;100721.16;;;8.39;68.60
54920;BME280;63804;53.120;8.764;2024-03-25T08:34:04;100728.91;;;8.28;69.43
54920;BME280;63804;53.120;8.764;2024-03-25T08:36:30;100725.72;;;8.23;69.82
54920;BME280;63804;53.120;8.764;2024-03-25T08:38:56;100730.69;;;8.27;69.98
54920;BME280;63804;53.120;8.764;2024-03-25T08:41:22;100726.34;;;8.26;70.03
54920;BME280;63804;53.120;8.764;2024-03-25T08:43:48;100720.13;;;8.27;69.85
54920;BME280;63804;53.120;8.764;2024-03-25T08:46:14;100728.50;;;8.34;69.15
54920;BME280;63804;53.120;8.764;2024-03-25T08:48:40;100720.59;;;8.34;68.70
54920;BME280;63804;53.120;8.764;2024-03-25T08:51:06;100719.56;;;8.37;68.84
54920;BME280;63804;53.120;8.764;2024-03-25T08:53:33;100724.91;;;8.35;68.70
54920;BME280;63804;53.120;8.764;2024-03-25T08:55:58;100721.53;;;8.47;68.40
54920;BME280;63804;53.120;8.764;2024-03-25T08:58:24;100729.59;;;8.59;67.86
54920;BME280;63804;53.120;8.764;2024-03-25T09:00:51;100718.41;;;8.68;67.83
54920;BME280;63804;53.120;8.764;2024-03-25T09:03:17;100722.47;;;8.86;67.03
54920;BME280;63804;53.120;8.764;2024-03-25T09:05:43;100728.84;;;9.09;65.89
54920;BME280;63804;53.120;8.764;2024-03-25T09:08:09;100728.44;;;9.28;64.90
54920;BME280;63804;53.120;8.764;2024-03-25T09:10:37;100726.41;;;9.44;64.93
54920;BME280;63804;53.120;8.764;2024-03-25T09:13:22;100726.72;;;9.52;64.71
54920;BME280;63804;53.120;8.764;2024-03-25T09:15:51;100735.63;;;9.39;64.28
54920;BME280;63804;53.120;8.764;2024-03-25T09:18:17;100736.78;;;9.47;64.86
54920;BME280;63804;53.120;8.764;2024-03-25T09:20:44;100741.63;;;9.53;64.81
54920;BME280;63804;53.120;8.764;2024-03-25T09:23:10;100736.22;;;9.42;63.94
54920;BME280;63804;53.120;8.764;2024-03-25T09:25:36;100744.16;;;9.30;63.69
54920;BME280;63804;53.120;8.764;2024-03-25T09:28:02;100738.66;;;9.45;63.57
54920;BME280;63804;53.120;8.764;2024-03-25T09:30:28;100743.44;;;9.66;63.18
54920;BME280;63804;53.120;8.764;2024-03-25T09:32:54;100744.16;;;9.68;61.38
54920;BME280;63804;53.120;8.764;2024-03-25T09:35:20;100742.56;;;9.65;60.86
54920;BME280;63804;53.120;8.764;2024-03-25T09:37:46;100746.06;;;9.66;60.53
54920;BME280;63804;53.120;8.764;2024-03-25T09:40:12;100745.75;;;9.58;61.49
54920;BME280;63804;53.120;8.764;2024-03-25T09:42:48;100736.88;;;9.46;61.44
54920;BME280;63804;53.120;8.764;2024-03-25T09:45:18;100747.69;;;9.43;62.13
54920;BME280;63804;53.120;8.764;2024-03-25T09:47:48;100747.25;;;9.36;62.14
54920;BME280;63804;53.120;8.764;2024-03-25T09:50:14;100748.19;;;9.22;62.10
54920;BME280;63804;53.120;8.764;2024-03-25T09:52:46;100753.91;;;9.29;61.75
54920;BME280;63804;53.120;8.764;2024-03-25T09:55:12;100750.28;;;9.30;61.73
54920;BME280;63804;53.120;8.764;2024-03-25T09:57:38;100755.47;;;9.44;61.44
54920;BME280;63804;53.120;8.764;2024-03-25T10:00:05;100753.69;;;9.45;61.73
54920;BME280;63804;53.120;8.764;2024-03-25T10:02:33;100763.53;;;9.43;61.85
54920;BME280;63804;53.120;8.764;2024-03-25T10:05:00;100760.78;;;9.32;61.87
54920;BME280;63804;53.120;8.764;2024-03-25T10:07:27;100754.97;;;9.39;61.50
54920;BME280;63804;53.120;8.764;2024-03-25T10:09:54;100751.47;;;9.51;61.42
54920;BME280;63804;53.120;8.764;2024-03-25T10:12:20;100748.81;;;9.64;61.42
54920;BME280;63804;53.120;8.764;2024-03-25T10:14:46;100754.41;;;9.60;61.38
54920;BME280;63804;53.120;8.764;2024-03-25T10:17:11;100763.22;;;9.73;61.26
54920;BME280;63804;53.120;8.764;2024-03-25T10:19:37;100754.19;;;9.75;60.63
54920;BME280;63804;53.120;8.764;2024-03-25T10:22:08;100758.97;;;9.58;60.89
54920;BME280;63804;53.120;8.764;2024-03-25T10:24:41;100758.56;;;9.51;60.80
54920;BME280;63804;53.120;8.764;2024-03-25T10:27:21;100756.09;;;9.61;60.42
54920;BME280;63804;53.120;8.764;2024-03-25T10:29:54;100763.38;;;9.83;59.80
54920;BME280;63804;53.120;8.764;2024-03-25T10:32:23;100763.16;;;9.98;59.56
54920;BME280;63804;53.120;8.764;2024-03-25T10:34:51;100759.94;;;10.06;59.25
54920;BME280;63804;53.120;8.764;2024-03-25T10:37:17;100762.81;;;10.03;59.43
54920;BME280;63804;53.120;8.764;2024-03-25T10:39:56;100756.22;;;10.21;59.33
54920;BME280;63804;53.120;8.764;2024-03-25T10:42:24;100759.69;;;10.22;59.26
54920;BME280;63804;53.120;8.764;2024-03-25T10:44:50;100763.28;;;10.34;58.88
54920;BME280;63804;53.120;8.764;2024-03-25T10:47:20;100760.44;;;10.61;58.47
54920;BME280;63804;53.120;8.764;2024-03-25T10:49:56;100764.44;;;10.66;58.19
54920;BME280;63804;53.120;8.764;2024-03-25T10:52:23;100762.53;;;10.68;57.27
54920;BME280;63804;53.120;8.764;2024-03-25T10:54:50;100759.13;;;10.66;57.48
54920;BME280;63804;53.120;8.764;2024-03-25T10:57:16;100754.63;;;10.56;57.66
54920;BME280;63804;53.120;8.764;2024-03-25T10:59:43;100750.03;;;10.34;57.84
54920;BME280;63804;53.120;8.764;2024-03-25T11:02:10;100752.41;;;10.25;57.89
54920;BME280;63804;53.120;8.764;2024-03-25T11:04:37;100756.81;;;10.38;57.55
54920;BME280;63804;53.120;8.764;2024-03-25T11:07:09;100755.19;;;10.48;57.33
54920;BME280;63804;53.120;8.764;2024-03-25T11:09:41;100752.81;;;10.56;57.15
54920;BME280;63804;53.120;8.764;2024-03-25T11:12:12;100753.63;;;10.69;57.25
54920;BME280;63804;53.120;8.764;2024-03-25T11:14:38;100759.41;;;10.74;57.18
54920;BME280;63804;53.120;8.764;2024-03-25T11:17:17;100754.81;;;10.65;57.57
54920;BME280;63804;53.120;8.764;2024-03-25T11:19:43;100756.50;;;10.66;58.19
54920;BME280;63804;53.120;8.764;2024-03-25T11:22:10;100756.88;;;10.73;57.93
54920;BME280;63804;53.120;8.764;2024-03-25T11:24:37;100747.63;;;10.79;57.44
54920;BME280;63804;53.120;8.764;2024-03-25T11:27:07;100749.47;;;10.89;57.31
54920;BME280;63804;53.120;8.764;2024-03-25T11:29:36;100740.47;;;10.92;57.26
54920;BME280;63804;53.120;8.764;2024-03-25T11:32:05;100741.75;;;10.86;57.58
54920;BME280;63804;53.120;8.764;2024-03-25T11:34:32;100743.22;;;10.90;56.99
54920;BME280;63804;53.120;8.764;2024-03-25T11:36:58;100738.16;;;10.98;56.96
54920;BME280;63804;53.120;8.764;2024-03-25T11:39:24;100733.09;;;10.84;56.58
54920;BME280;63804;53.120;8.764;2024-03-25T11:41:54;100735.66;;;10.97;56.25
54920;BME280;63804;53.120;8.764;2024-03-25T11:44:21;100730.75;;;11.04;56.48
54920;BME280;63804;53.120;8.764;2024-03-25T11:46:50;100725.09;;;11.08;55.76
54920;BME280;63804;53.120;8.764;2024-03-25T11:49:16;100735.94;;;11.16;55.80
54920;BME280;63804;53.120;8.764;2024-03-25T11:51:45;100718.72;;;11.11;55.34
54920;BME280;63804;53.120;8.764;2024-03-25T11:54:12;100716.91;;;11.11;55.54
54920;BME280;63804;53.120;8.764;2024-03-25T11:56:39;100714.88;;;11.15;55.36
54920;BME280;63804;53.120;8.764;2024-03-25T11:59:05;100714.47;;;11.08;55.39
54920;BME280;63804;53.120;8.764;2024-03-25T12:01:32;100710.69;;;10.88;55.50
54920;BME280;63804;53.120;8.764;2024-03-25T12:04:11;100711.72;;;10.74;55.93
54920;BME280;63804;53.120;8.764;2024-03-25T12:06:38;100709.53;;;10.57;56.43
54920;BME280;63804;53.120;8.764;2024-03-25T12:09:04;100700.00;;;10.55;56.50
54920;BME280;63804;53.120;8.764;2024-03-25T12:11:48;100703.78;;;10.74;56.00
54920;BME280;63804;53.120;8.764;2024-03-25T12:14:14;100697.91;;;10.82;55.14
54920;BME280;63804;53.120;8.764;2024-03-25T12:16:42;100692.88;;;10.90;54.98
54920;BME280;63804;53.120;8.764;2024-03-25T12:19:08;100691.91;;;10.80;54.84
54920;BME280;63804;53.120;8.764;2024-03-25T12:21:34;100693.53;;;10.70;55.03
54920;BME280;63804;53.120;8.764;2024-03-25T12:24:00;100686.75;;;10.55;54.90
54920;BME280;63804;53.120;8.764;2024-03-25T12:26:26;100684.94;;;10.55;54.56
54920;BME280;63804;53.120;8.764;2024-03-25T12:28:53;100671.44;;;10.47;54.27
54920;BME280;63804;53.120;8.764;2024-03-25T12:31:19;100671.69;;;10.55;54.58
54920;BME280;63804;53.120;8.764;2024-03-25T12:33:48;100663.94;;;10.65;54.39
54920;BME280;63804;53.120;8.764;2024-03-25T12:36:14;100666.22;;;10.69;54.57
54920;BME280;63804;53.120;8.764;2024-03-25T12:38:41;100665.03;;;10.73;54.76
54920;BME280;63804;53.120;8.764;2024-03-25T12:41:08;100675.72;;;10.72;54.60
54920;BME280;63804;53.120;8.764;2024-03-25T12:43:37;100664.41;;;10.70;55.13
54920;BME280;63804;53.120;8.764;2024-03-25T12:46:07;100673.69;;;10.76;54.31
54920;BME280;63804;53.120;8.764;2024-03-25T12:48:35;100671.31;;;10.84;53.25
54920;BME280;63804;53.120;8.764;2024-03-25T12:51:01;100665.91;;;10.96;53.42
54920;BME280;63804;53.120;8.764;2024-03-25T12:53:27;100656.53;;;11.04;53.14
54920;BME280;63804;53.120;8.764;2024-03-25T12:55:53;100663.66;;;11.03;52.19
54920;BME280;63804;53.120;8.764;2024-03-25T12:58:19;100663.53;;;11.05;51.92